Redding (RDD/KRDD)

Map

Destinations

Information

Location
Redding, CA
Local Time
20:41 / 8:41 pm
GMT Time
03:41 / 3:41 am
Gates
3
No FAA reported delays
METAR KRDD 260253Z 16012KT 10SM CLR 22/11 A2968 RMK AO2 RAE0154 SLP047 P0000 60000 T02220111 53014
TAF KRDD 260008Z 2600/2624 18012G20KT P6SM SKC FM260300 VRB04KT P6SM BKN060 FM262100 17009KT P6SM SKC